Time;durP1;ratioP1;P1;durP2;ratioP2;P2;SDS_P1;SDS_P2;PMS_P1;PMS_P2;Temp;Humidity;BMP_temperature;BMP_pressure;BME280_temperature;BME280_humidity;BME280_pressure;Samples;Min_cycle;Max_cycle;Signal;HPM_P1;HPM_P2
2022/02/07 00:01:57;;;;;;;1.15;0.75;;;;;;;;;;6136818;23;20021;-86
2022/02/07 00:04:30;;;;;;;0.80;0.80;;;;;;;;;;6101872;23;20017;-85
2022/02/07 00:06:59;;;;;;;0.88;0.88;;;;;;;;;;6161320;23;20025;-85
2022/02/07 00:09:27;;;;;;;0.65;0.65;;;;;;;;;;6157109;23;20437;-85
2022/02/07 00:11:55;;;;;;;0.80;0.80;;;;;;;;;;6157529;23;20457;-85
2022/02/07 00:14:23;;;;;;;0.70;0.70;;;;;;;;;;6161748;23;20018;-84
2022/02/07 00:16:54;;;;;;;0.70;0.70;;;;;;;;;;6154468;23;20033;-84
2022/02/07 00:19:26;;;;;;;0.82;0.82;;;;;;;;;;6125968;23;20018;-85
2022/02/07 00:21:55;;;;;;;0.75;0.75;;;;;;;;;;6126220;23;20029;-84
2022/02/07 00:24:26;;;;;;;0.70;0.70;;;;;;;;;;6129345;23;20022;-84
2022/02/07 00:26:54;;;;;;;0.90;0.90;;;;;;;;;;6160967;23;20014;-83
2022/02/07 00:29:22;;;;;;;0.80;0.80;;;;;;;;;;6134864;23;20010;-84
2022/02/07 00:31:50;;;;;;;0.80;0.80;;;;;;;;;;6155628;23;20022;-82
2022/02/07 00:34:18;;;;;;;0.70;0.70;;;;;;;;;;6135294;23;20010;-86
2022/02/07 00:36:47;;;;;;;0.70;0.70;;;;;;;;;;6099389;23;20028;-85
2022/02/07 00:39:24;;;;;;;0.75;0.75;;;;;;;;;;6158063;23;20373;-85
2022/02/07 00:41:59;;;;;;;0.70;0.70;;;;;;;;;;6161897;23;20341;-84
2022/02/07 00:44:27;;;;;;;0.80;0.80;;;;;;;;;;6152266;23;20021;-83
2022/02/07 00:47:05;;;;;;;0.80;0.80;;;;;;;;;;6125074;23;20018;-86
2022/02/07 00:49:33;;;;;;;0.73;0.73;;;;;;;;;;6160555;23;20014;-83
2022/02/07 00:52:01;;;;;;;0.80;0.80;;;;;;;;;;6130172;23;20017;-83
2022/02/07 00:54:30;;;;;;;0.80;0.80;;;;;;;;;;6100733;23;20024;-83
2022/02/07 00:56:59;;;;;;;0.80;0.80;;;;;;;;;;6099758;23;20021;-83
2022/02/07 00:59:27;;;;;;;1.08;1.08;;;;;;;;;;6158027;23;20020;-85
2022/02/07 01:01:55;;;;;;;0.85;0.85;;;;;;;;;;6101811;23;20033;-84
2022/02/07 01:04:24;;;;;;;0.80;0.80;;;;;;;;;;6128186;23;20355;-85
2022/02/07 01:07:08;;;;;;;0.70;0.70;;;;;;;;;;6099979;23;20036;-84
2022/02/07 01:09:46;;;;;;;0.90;0.90;;;;;;;;;;6100250;23;20048;-83
2022/02/07 01:12:33;;;;;;;1.02;1.02;;;;;;;;;;6155205;23;20056;-83
2022/02/07 01:23:57;;;;;;;1.05;1.05;;;;;;;;;;6134581;23;20345;-85
2022/02/07 01:49:08;;;;;;;1.20;1.20;;;;;;;;;;6127282;23;20033;-83
2022/02/07 01:51:57;;;;;;;0.90;0.90;;;;;;;;;;6101942;23;20065;-81
2022/02/07 01:54:37;;;;;;;0.90;0.90;;;;;;;;;;6127147;23;20315;-85
2022/02/07 01:57:13;;;;;;;0.90;0.90;;;;;;;;;;6104133;23;20033;-82
2022/02/07 01:59:44;;;;;;;0.80;0.80;;;;;;;;;;6101095;23;20017;-82
2022/02/07 02:02:14;;;;;;;1.05;1.05;;;;;;;;;;6136269;23;20014;-84
2022/02/07 02:04:42;;;;;;;1.00;1.00;;;;;;;;;;6101306;23;20024;-83
2022/02/07 02:07:17;;;;;;;0.93;0.93;;;;;;;;;;6102263;23;20014;-83
2022/02/07 02:09:46;;;;;;;0.90;0.90;;;;;;;;;;6100900;23;20029;-84
2022/02/07 02:12:17;;;;;;;1.00;1.00;;;;;;;;;;6130703;23;20025;-87
2022/02/07 02:15:00;;;;;;;0.90;0.90;;;;;;;;;;6134849;23;20020;-87
2022/02/07 02:48:22;;;;;;;1.30;1.30;;;;;;;;;;6080450;23;20671;-84
2022/02/07 02:50:54;;;;;;;1.00;1.00;;;;;;;;;;6136157;23;20017;-83
2022/02/07 02:53:22;;;;;;;1.30;1.30;;;;;;;;;;6125137;23;20057;-85
2022/02/07 02:55:54;;;;;;;0.95;0.95;;;;;;;;;;6101726;23;20017;-85
2022/02/07 02:58:35;;;;;;;0.98;0.98;;;;;;;;;;6099849;23;20025;-82
2022/02/07 03:01:05;;;;;;;1.10;1.10;;;;;;;;;;6100704;23;20509;-85
2022/02/07 03:03:48;;;;;;;1.55;1.50;;;;;;;;;;6131881;23;20021;-86
2022/02/07 03:06:16;;;;;;;1.00;1.00;;;;;;;;;;6136299;23;20009;-84
2022/02/07 03:08:44;;;;;;;1.67;1.10;;;;;;;;;;6124280;23;20026;-83
2022/02/07 03:11:17;;;;;;;1.52;1.42;;;;;;;;;;6101683;23;20028;-82
2022/02/07 03:13:53;;;;;;;1.08;1.08;;;;;;;;;;6135820;23;20025;-83
2022/02/07 03:16:47;;;;;;;1.67;1.58;;;;;;;;;;6154347;23;20338;-85
2022/02/07 03:19:16;;;;;;;1.10;1.10;;;;;;;;;;6132543;23;20456;-84
2022/02/07 03:21:57;;;;;;;1.00;1.00;;;;;;;;;;6136432;23;20021;-84
2022/02/07 03:24:25;;;;;;;1.15;1.15;;;;;;;;;;6100484;23;20029;-84
2022/02/07 03:27:14;;;;;;;1.30;1.30;;;;;;;;;;6085659;23;20337;-83
2022/02/07 03:29:48;;;;;;;1.73;1.63;;;;;;;;;;6134673;23;20013;-83
2022/02/07 03:32:21;;;;;;;0.95;0.95;;;;;;;;;;6128118;23;20022;-83
2022/02/07 03:35:05;;;;;;;0.90;0.90;;;;;;;;;;6160277;23;20013;-86
2022/02/07 03:37:34;;;;;;;1.17;1.17;;;;;;;;;;6101701;23;20017;-83
2022/02/07 03:40:03;;;;;;;1.05;1.05;;;;;;;;;;6130145;23;20025;-82
2022/02/07 03:42:32;;;;;;;1.02;1.02;;;;;;;;;;6135810;23;20017;-83
2022/02/07 03:45:06;;;;;;;0.90;0.90;;;;;;;;;;6125717;23;20025;-82
2022/02/07 03:47:40;;;;;;;1.05;1.05;;;;;;;;;;6130938;23;20078;-86
2022/02/07 03:50:08;;;;;;;1.00;1.00;;;;;;;;;;6135715;23;20457;-83
2022/02/07 03:52:42;;;;;;;0.80;0.80;;;;;;;;;;6099047;23;20032;-82
2022/02/07 03:55:11;;;;;;;1.20;0.80;;;;;;;;;;6101097;23;20022;-83
2022/02/07 03:57:40;;;;;;;0.80;0.80;;;;;;;;;;6136565;23;20017;-82
2022/02/07 04:00:10;;;;;;;1.05;1.05;;;;;;;;;;6099567;23;20040;-82
2022/02/07 04:02:46;;;;;;;1.02;1.02;;;;;;;;;;6103416;23;20033;-84
2022/02/07 04:05:53;;;;;;;1.00;1.00;;;;;;;;;;6103824;23;20029;-85
2022/02/07 04:08:33;;;;;;;1.02;1.02;;;;;;;;;;6100000;23;20492;-83
2022/02/07 04:13:48;;;;;;;0.90;0.90;;;;;;;;;;6100954;23;20018;-84
2022/02/07 04:16:16;;;;;;;0.95;0.95;;;;;;;;;;6129479;23;20465;-84
2022/02/07 04:19:35;;;;;;;1.15;1.10;;;;;;;;;;6100930;23;20452;-84
2022/02/07 04:21:44;;;;;;;0.90;0.90;;;;;;;;;;6072561;23;20026;-83
2022/02/07 04:24:17;;;;;;;0.90;0.90;;;;;;;;;;6099623;23;20037;-83
2022/02/07 04:27:04;;;;;;;1.05;1.05;;;;;;;;;;6122058;23;20024;-83
2022/02/07 04:29:33;;;;;;;1.20;1.20;;;;;;;;;;6099188;23;20349;-84
2022/02/07 04:32:03;;;;;;;1.15;1.15;;;;;;;;;;6128817;23;20342;-83
2022/02/07 04:34:32;;;;;;;1.13;1.13;;;;;;;;;;6133275;23;20028;-85
2022/02/07 04:37:01;;;;;;;2.50;2.03;;;;;;;;;;6099678;23;20345;-83
2022/02/07 04:39:29;;;;;;;1.58;1.48;;;;;;;;;;6130399;23;20025;-83
2022/02/07 04:42:12;;;;;;;1.92;1.05;;;;;;;;;;6133062;23;20584;-85
2022/02/07 04:44:52;;;;;;;1.17;1.17;;;;;;;;;;6099786;23;20033;-83
2022/02/07 04:47:41;;;;;;;1.40;1.30;;;;;;;;;;6107980;23;20025;-84
2022/02/07 04:55:36;;;;;;;2.40;1.70;;;;;;;;;;6132216;23;20048;-84
2022/02/07 04:58:28;;;;;;;1.70;1.60;;;;;;;;;;6100971;23;20021;-87
2022/02/07 05:03:57;;;;;;;1.10;1.10;;;;;;;;;;6098039;23;20476;-84
2022/02/07 05:14:52;;;;;;;11.20;3.17;;;;;;;;;;6136388;23;20018;-83
2022/02/07 05:17:21;;;;;;;1.27;1.27;;;;;;;;;;6136569;23;20028;-83
2022/02/07 05:20:15;;;;;;;1.10;1.10;;;;;;;;;;6107130;23;20033;-86
2022/02/07 05:23:07;;;;;;;1.45;1.45;;;;;;;;;;6101813;23;20053;-85
2022/02/07 05:25:56;;;;;;;1.85;1.75;;;;;;;;;;6126748;23;20021;-84
2022/02/07 05:28:48;;;;;;;9.73;2.30;;;;;;;;;;6141347;23;20030;-84
2022/02/07 05:31:43;;;;;;;1.35;1.35;;;;;;;;;;6101234;23;20032;-84
2022/02/07 05:34:34;;;;;;;1.90;1.90;;;;;;;;;;6091438;23;20025;-85
2022/02/07 05:37:18;;;;;;;1.58;1.58;;;;;;;;;;6128748;23;20265;-84
2022/02/07 05:40:17;;;;;;;3.47;1.33;;;;;;;;;;6101799;23;20036;-84
2022/02/07 05:43:09;;;;;;;22.35;2.05;;;;;;;;;;6071658;23;20021;-83
2022/02/07 05:46:15;;;;;;;1.88;1.77;;;;;;;;;;6035012;23;20455;-83
2022/02/07 05:49:17;;;;;;;1.25;1.25;;;;;;;;;;6001752;23;20024;-83
2022/02/07 05:51:59;;;;;;;1.88;1.77;;;;;;;;;;6085393;23;20021;-86
2022/02/07 05:54:54;;;;;;;3.47;1.65;;;;;;;;;;6124497;23;20033;-82
2022/02/07 05:57:38;;;;;;;1.83;1.70;;;;;;;;;;6125860;23;20018;-81
2022/02/07 06:00:32;;;;;;;1.90;1.80;;;;;;;;;;6104238;23;20033;-86
2022/02/07 06:03:08;;;;;;;1.88;1.77;;;;;;;;;;6100602;23;20026;-86
2022/02/07 06:05:40;;;;;;;4.85;2.60;;;;;;;;;;6103295;23;20026;-86
2022/02/07 06:08:21;;;;;;;2.43;2.00;;;;;;;;;;6130243;23;20028;-88
2022/02/07 06:10:50;;;;;;;1.90;1.80;;;;;;;;;;6137401;23;20014;-85
2022/02/07 06:13:24;;;;;;;1.50;1.40;;;;;;;;;;6103022;23;20021;-85
2022/02/07 06:16:01;;;;;;;2.03;1.90;;;;;;;;;;6133470;23;20026;-88
2022/02/07 06:18:39;;;;;;;8.35;2.22;;;;;;;;;;6137729;23;20014;-81
2022/02/07 06:21:08;;;;;;;8.25;2.45;;;;;;;;;;6127008;23;20024;-81
2022/02/07 06:23:39;;;;;;;5.68;1.88;;;;;;;;;;6101032;23;20028;-79
2022/02/07 06:26:14;;;;;;;1.30;1.25;;;;;;;;;;6136363;23;20028;-80
2022/02/07 06:28:44;;;;;;;3.10;2.90;;;;;;;;;;6127049;23;20025;-80
2022/02/07 06:31:14;;;;;;;2.00;1.80;;;;;;;;;;6134380;23;20029;-81
2022/02/07 06:33:42;;;;;;;3.00;2.35;;;;;;;;;;6136367;23;20013;-80
2022/02/07 06:36:12;;;;;;;2.85;1.60;;;;;;;;;;6101043;23;20026;-79
2022/02/07 06:38:40;;;;;;;1.95;1.85;;;;;;;;;;6134622;23;20013;-80
2022/02/07 06:41:09;;;;;;;2.90;1.77;;;;;;;;;;6126914;23;20029;-80
2022/02/07 06:43:37;;;;;;;1.17;1.17;;;;;;;;;;6132244;23;20022;-79
2022/02/07 06:46:09;;;;;;;1.63;1.52;;;;;;;;;;6137130;23;20010;-80
2022/02/07 06:48:37;;;;;;;4.40;1.85;;;;;;;;;;6128603;23;20028;-81
2022/02/07 06:51:09;;;;;;;2.60;1.75;;;;;;;;;;6134921;23;20028;-79
2022/02/07 06:53:39;;;;;;;2.90;2.10;;;;;;;;;;6136479;23;20337;-79
2022/02/07 06:56:08;;;;;;;2.05;1.77;;;;;;;;;;6131223;23;20345;-80
2022/02/07 06:58:37;;;;;;;1.42;1.30;;;;;;;;;;6161630;23;20025;-80
2022/02/07 07:01:06;;;;;;;2.83;2.25;;;;;;;;;;6126650;23;20021;-79
2022/02/07 07:03:38;;;;;;;1.02;1.02;;;;;;;;;;6133168;23;20021;-80
2022/02/07 07:06:06;;;;;;;6.20;2.75;;;;;;;;;;6136756;23;20010;-81
2022/02/07 07:08:41;;;;;;;1.85;1.60;;;;;;;;;;6128148;23;20017;-81
2022/02/07 07:11:12;;;;;;;1.83;1.73;;;;;;;;;;6134525;23;20018;-79
2022/02/07 07:13:47;;;;;;;1.75;1.65;;;;;;;;;;6135724;23;20029;-80
2022/02/07 07:16:37;;;;;;;1.48;1.48;;;;;;;;;;6101603;23;20040;-79
2022/02/07 07:19:07;;;;;;;5.57;1.95;;;;;;;;;;6133752;23;20029;-79
2022/02/07 07:21:38;;;;;;;4.05;1.60;;;;;;;;;;6136577;23;20009;-81
2022/02/07 07:24:07;;;;;;;4.45;2.45;;;;;;;;;;6101224;23;20026;-81
2022/02/07 07:26:36;;;;;;;1.83;1.40;;;;;;;;;;6102093;23;20021;-80
2022/02/07 07:29:14;;;;;;;3.70;2.25;;;;;;;;;;6125782;23;20026;-80
2022/02/07 07:31:51;;;;;;;1.77;1.63;;;;;;;;;;6131862;23;20349;-80
2022/02/07 07:34:23;;;;;;;1.98;1.70;;;;;;;;;;6136509;23;20010;-81
2022/02/07 07:36:55;;;;;;;3.03;2.75;;;;;;;;;;6100918;23;20025;-79
2022/02/07 07:39:23;;;;;;;3.22;3.00;;;;;;;;;;6158863;23;20032;-79
2022/02/07 07:41:52;;;;;;;7.30;2.40;;;;;;;;;;6136329;23;20009;-79
2022/02/07 07:44:30;;;;;;;1.40;1.30;;;;;;;;;;6128577;23;20025;-78
2022/02/07 07:47:26;;;;;;;2.90;1.88;;;;;;;;;;6133342;23;20033;-80
2022/02/07 07:50:30;;;;;;;2.97;1.77;;;;;;;;;;6136028;23;20024;-81
2022/02/07 08:03:48;;;;;;;2.55;2.28;;;;;;;;;;6101252;23;20017;-79
2022/02/07 08:06:30;;;;;;;9.40;2.08;;;;;;;;;;6135970;23;20020;-79
2022/02/07 08:11:32;;;;;;;2.60;2.40;;;;;;;;;;6133232;23;20452;-80
2022/02/07 08:14:04;;;;;;;1.77;1.67;;;;;;;;;;6125713;23;20021;-80
2022/02/07 08:16:34;;;;;;;2.83;2.45;;;;;;;;;;6128837;23;20025;-79
2022/02/07 08:19:06;;;;;;;2.25;2.03;;;;;;;;;;6160399;23;20445;-78
2022/02/07 08:21:37;;;;;;;1.52;1.52;;;;;;;;;;6162159;23;20024;-79
2022/02/07 08:24:06;;;;;;;2.53;2.33;;;;;;;;;;6151544;23;20017;-79
2022/02/07 08:26:34;;;;;;;4.68;2.10;;;;;;;;;;6162145;23;20476;-79
2022/02/07 08:29:02;;;;;;;1.95;1.85;;;;;;;;;;6124492;23;20022;-79
2022/02/07 08:31:30;;;;;;;2.67;2.35;;;;;;;;;;6134844;23;20025;-80
2022/02/07 08:33:58;;;;;;;3.75;2.50;;;;;;;;;;6138123;23;20024;-83
2022/02/07 08:36:26;;;;;;;2.03;1.92;;;;;;;;;;6154681;23;20033;-80
2022/02/07 08:38:54;;;;;;;3.55;2.72;;;;;;;;;;6126842;23;20026;-80
2022/02/07 08:41:23;;;;;;;2.35;1.58;;;;;;;;;;6102995;23;20445;-80
2022/02/07 08:43:51;;;;;;;6.95;2.45;;;;;;;;;;6132121;23;20456;-81
2022/02/07 08:46:20;;;;;;;2.45;2.17;;;;;;;;;;6127171;23;20028;-82
2022/02/07 08:48:48;;;;;;;3.03;2.03;;;;;;;;;;6102661;23;20025;-81
2022/02/07 08:51:17;;;;;;;5.00;2.78;;;;;;;;;;6161650;23;20476;-80
2022/02/07 08:53:46;;;;;;;3.05;2.50;;;;;;;;;;6137088;23;20024;-79
2022/02/07 08:56:16;;;;;;;1.98;1.88;;;;;;;;;;6131475;23;20029;-80
2022/02/07 08:58:47;;;;;;;3.42;2.08;;;;;;;;;;6162328;23;20550;-79
2022/02/07 09:01:24;;;;;;;2.47;2.30;;;;;;;;;;6153058;23;20332;-79
2022/02/07 09:09:05;;;;;;;1.90;1.33;;;;;;;;;;6154481;23;20033;-79
2022/02/07 09:11:33;;;;;;;7.20;2.42;;;;;;;;;;6160336;23;20022;-81
2022/02/07 09:14:09;;;;;;;3.75;1.92;;;;;;;;;;6126723;23;20445;-80
2022/02/07 09:16:39;;;;;;;7.82;1.98;;;;;;;;;;6103551;23;20028;-79
2022/02/07 09:19:08;;;;;;;1.50;1.40;;;;;;;;;;6111187;23;20038;-79
2022/02/07 09:21:37;;;;;;;5.00;1.70;;;;;;;;;;6102818;23;20029;-78
2022/02/07 09:24:05;;;;;;;3.33;2.08;;;;;;;;;;6131172;23;20030;-78
2022/02/07 09:26:33;;;;;;;3.40;2.38;;;;;;;;;;6127473;23;20021;-79
2022/02/07 09:29:01;;;;;;;4.20;2.53;;;;;;;;;;6151135;23;20029;-79
2022/02/07 09:31:29;;;;;;;7.93;1.98;;;;;;;;;;6159879;23;20018;-78
2022/02/07 09:33:57;;;;;;;3.95;2.83;;;;;;;;;;6163414;23;20010;-78
2022/02/07 09:36:26;;;;;;;2.03;1.92;;;;;;;;;;6131401;23;20044;-79
2022/02/07 09:38:54;;;;;;;9.05;3.03;;;;;;;;;;6162448;23;20358;-78
2022/02/07 09:41:23;;;;;;;2.25;1.50;;;;;;;;;;6137175;23;20010;-78
2022/02/07 09:43:53;;;;;;;7.63;2.45;;;;;;;;;;6157104;23;20025;-79
2022/02/07 09:46:43;;;;;;;2.30;2.15;;;;;;;;;;6103180;23;20024;-78
2022/02/07 09:49:12;;;;;;;15.98;3.28;;;;;;;;;;6152730;23;20029;-79
2022/02/07 09:51:43;;;;;;;2.00;1.88;;;;;;;;;;6126662;23;20071;-78
2022/02/07 09:54:18;;;;;;;2.17;2.08;;;;;;;;;;6136724;23;20021;-85
2022/02/07 09:56:52;;;;;;;2.28;1.83;;;;;;;;;;6129199;23;20017;-89
2022/02/07 09:59:27;;;;;;;3.80;2.20;;;;;;;;;;6100681;23;20524;-85
2022/02/07 10:01:58;;;;;;;1.38;1.20;;;;;;;;;;6102687;23;20377;-90
2022/02/07 10:04:36;;;;;;;5.50;2.67;;;;;;;;;;6102467;23;20026;-86
2022/02/07 10:10:01;;;;;;;6.65;3.38;;;;;;;;;;6156755;23;20022;-83
2022/02/07 10:12:38;;;;;;;3.38;2.15;;;;;;;;;;6126267;23;20021;-84
2022/02/07 10:15:21;;;;;;;7.47;2.83;;;;;;;;;;6134024;23;20021;-83
2022/02/07 10:18:13;;;;;;;7.45;1.73;;;;;;;;;;6162608;23;20021;-86
2022/02/07 10:37:56;;;;;;;2.63;1.90;;;;;;;;;;6124616;23;20029;-81
2022/02/07 10:40:34;;;;;;;3.00;2.33;;;;;;;;;;6127489;23;20022;-88
2022/02/07 10:43:58;;;;;;;4.40;1.60;;;;;;;;;;6096871;23;20032;-87
2022/02/07 10:46:51;;;;;;;2.15;2.05;;;;;;;;;;6087595;23;20025;-87
2022/02/07 10:49:30;;;;;;;3.75;2.85;;;;;;;;;;6108444;23;20033;-82
2022/02/07 10:52:00;;;;;;;7.10;2.60;;;;;;;;;;6125686;23;20033;-82
2022/02/07 10:54:29;;;;;;;6.72;2.83;;;;;;;;;;6097114;23;20472;-87
2022/02/07 10:56:57;;;;;;;8.95;2.17;;;;;;;;;;6094048;23;20021;-85
2022/02/07 10:59:28;;;;;;;7.03;2.75;;;;;;;;;;6120099;23;20296;-86
2022/02/07 11:02:50;;;;;;;5.55;3.08;;;;;;;;;;6131548;23;20028;-85
2022/02/07 11:04:59;;;;;;;11.10;2.70;;;;;;;;;;6082725;23;20567;-81
2022/02/07 11:07:29;;;;;;;5.55;2.25;;;;;;;;;;6073355;23;20465;-86
2022/02/07 11:15:15;;;;;;;7.35;2.35;;;;;;;;;;6115419;23;20025;-88
2022/02/07 11:18:10;;;;;;;10.45;2.63;;;;;;;;;;6116547;23;20022;-87
2022/02/07 11:23:28;;;;;;;1.65;1.55;;;;;;;;;;6127113;23;20448;-85
2022/02/07 11:26:14;;;;;;;11.00;2.58;;;;;;;;;;6118667;23;20018;-84
2022/02/07 11:28:44;;;;;;;2.03;1.17;;;;;;;;;;6119892;23;20040;-84
2022/02/07 11:31:13;;;;;;;2.78;2.28;;;;;;;;;;6116987;23;20027;-83
2022/02/07 11:36:36;;;;;;;6.25;2.55;;;;;;;;;;6092016;23;20025;-82
2022/02/07 11:39:10;;;;;;;1.98;1.85;;;;;;;;;;6116471;23;20023;-84
2022/02/07 11:42:01;;;;;;;2.40;2.20;;;;;;;;;;6119225;23;20342;-87
2022/02/07 11:44:31;;;;;;;2.80;2.15;;;;;;;;;;6116194;23;20026;-87
2022/02/07 11:47:28;;;;;;;3.13;2.10;;;;;;;;;;6119538;23;20457;-84
2022/02/07 11:50:03;;;;;;;2.58;2.00;;;;;;;;;;6128845;23;20024;-87
2022/02/07 11:52:46;;;;;;;26.40;3.63;;;;;;;;;;6120638;23;20041;-90
2022/02/07 11:55:18;;;;;;;3.33;2.85;;;;;;;;;;6127834;23;20026;-87
2022/02/07 12:00:35;;;;;;;4.40;1.95;;;;;;;;;;6092141;23;20052;-88
2022/02/07 12:03:08;;;;;;;3.77;2.03;;;;;;;;;;6127125;23;20018;-85
2022/02/07 12:05:47;;;;;;;10.95;2.55;;;;;;;;;;6127680;23;20497;-87
2022/02/07 12:08:20;;;;;;;2.33;1.80;;;;;;;;;;6117534;23;20326;-85
2022/02/07 12:11:04;;;;;;;8.55;3.72;;;;;;;;;;6158299;23;20014;-84
2022/02/07 12:13:35;;;;;;;6.63;2.95;;;;;;;;;;6103484;23;20030;-87
2022/02/07 12:16:07;;;;;;;2.50;2.00;;;;;;;;;;6096650;23;20032;-87
2022/02/07 12:18:37;;;;;;;4.72;3.30;;;;;;;;;;6121209;23;20033;-87
2022/02/07 12:21:16;;;;;;;7.32;2.28;;;;;;;;;;6096691;23;20451;-86
2022/02/07 12:23:49;;;;;;;2.50;2.08;;;;;;;;;;6096277;23;20330;-87
2022/02/07 12:26:26;;;;;;;3.47;1.85;;;;;;;;;;6131788;23;20013;-86
2022/02/07 12:28:58;;;;;;;3.50;1.50;;;;;;;;;;6122147;23;20022;-87
2022/02/07 12:31:29;;;;;;;4.45;2.05;;;;;;;;;;6096652;23;20029;-87
2022/02/07 12:34:15;;;;;;;7.47;2.30;;;;;;;;;;6122571;23;20018;-88
2022/02/07 12:36:43;;;;;;;2.33;2.15;;;;;;;;;;6119301;23;20025;-86
2022/02/07 12:39:14;;;;;;;3.22;2.13;;;;;;;;;;6119817;23;20025;-82
2022/02/07 12:41:43;;;;;;;5.55;2.15;;;;;;;;;;6157034;23;20014;-85
2022/02/07 12:44:19;;;;;;;5.18;2.83;;;;;;;;;;6118962;23;20036;-78
2022/02/07 12:46:48;;;;;;;5.78;2.80;;;;;;;;;;6131405;23;20515;-84
2022/02/07 12:49:22;;;;;;;5.38;2.38;;;;;;;;;;6145326;23;20327;-84
2022/02/07 12:51:52;;;;;;;4.45;2.20;;;;;;;;;;6152758;23;20480;-83
2022/02/07 12:54:22;;;;;;;17.42;3.05;;;;;;;;;;6096227;23;20021;-82
2022/02/07 12:56:51;;;;;;;8.75;4.05;;;;;;;;;;6147910;23;20029;-82
2022/02/07 12:59:19;;;;;;;2.70;2.25;;;;;;;;;;6127003;23;20025;-81
2022/02/07 13:01:47;;;;;;;2.90;1.98;;;;;;;;;;6120568;23;20053;-81
2022/02/07 13:04:20;;;;;;;2.40;1.70;;;;;;;;;;6119423;23;20045;-84
2022/02/07 13:07:02;;;;;;;3.90;2.58;;;;;;;;;;6156576;23;20037;-82
2022/02/07 13:09:41;;;;;;;2.33;1.70;;;;;;;;;;6088400;23;20083;-84
2022/02/07 13:14:43;;;;;;;7.45;2.22;;;;;;;;;;6112769;23;20343;-87
2022/02/07 13:17:11;;;;;;;10.57;1.75;;;;;;;;;;6118773;23;20030;-84
2022/02/07 13:19:41;;;;;;;1.45;1.35;;;;;;;;;;6124020;23;20026;-84
2022/02/07 13:22:09;;;;;;;4.10;3.05;;;;;;;;;;6129843;23;20468;-85
2022/02/07 13:24:39;;;;;;;7.60;2.53;;;;;;;;;;6119600;23;20026;-88
2022/02/07 13:27:11;;;;;;;3.08;1.45;;;;;;;;;;6126438;23;20018;-88
2022/02/07 13:29:47;;;;;;;5.38;1.50;;;;;;;;;;6127120;23;20024;-86
2022/02/07 13:32:19;;;;;;;7.32;6.13;;;;;;;;;;6123187;23;20030;-87
2022/02/07 13:34:48;;;;;;;4.85;3.60;;;;;;;;;;6129602;23;20018;-85
2022/02/07 13:37:18;;;;;;;2.45;2.25;;;;;;;;;;6118484;23;20030;-87
2022/02/07 13:40:05;;;;;;;8.07;2.85;;;;;;;;;;6123909;23;20034;-81
2022/02/07 13:42:36;;;;;;;3.05;1.58;;;;;;;;;;6117269;23;20025;-84
2022/02/07 13:45:07;;;;;;;6.07;2.72;;;;;;;;;;6118255;23;20022;-82
2022/02/07 13:47:40;;;;;;;8.98;2.78;;;;;;;;;;6123785;23;20461;-83
2022/02/07 13:50:18;;;;;;;1.65;1.45;;;;;;;;;;6117807;23;20021;-87
2022/02/07 13:52:47;;;;;;;3.70;1.75;;;;;;;;;;6093119;23;20038;-87
2022/02/07 13:55:20;;;;;;;3.25;1.90;;;;;;;;;;6069477;23;20441;-87
2022/02/07 13:57:49;;;;;;;5.07;2.13;;;;;;;;;;6066853;23;20022;-86
2022/02/07 14:00:20;;;;;;;2.70;1.52;;;;;;;;;;6115288;23;20361;-86
2022/02/07 14:03:10;;;;;;;3.00;2.65;;;;;;;;;;6118177;23;20049;-84
2022/02/07 14:05:41;;;;;;;1.55;1.50;;;;;;;;;;6128758;23;20092;-84
2022/02/07 14:08:11;;;;;;;9.27;3.38;;;;;;;;;;6122570;23;20354;-85
2022/02/07 14:10:43;;;;;;;5.38;2.03;;;;;;;;;;6145341;23;20547;-85
2022/02/07 14:13:18;;;;;;;4.53;2.22;;;;;;;;;;6121870;23;20025;-83
2022/02/07 14:15:47;;;;;;;5.10;2.28;;;;;;;;;;6154073;23;20030;-84
2022/02/07 14:18:18;;;;;;;4.20;2.57;;;;;;;;;;6148090;23;20017;-85
2022/02/07 14:20:47;;;;;;;6.68;2.33;;;;;;;;;;6096894;23;20030;-84
2022/02/07 14:23:16;;;;;;;11.75;3.30;;;;;;;;;;6096686;23;20025;-83
2022/02/07 14:25:46;;;;;;;3.00;2.72;;;;;;;;;;6158420;23;20357;-87
2022/02/07 14:28:15;;;;;;;2.05;1.85;;;;;;;;;;6151245;23;20029;-86
2022/02/07 14:30:54;;;;;;;6.13;2.22;;;;;;;;;;6074400;23;20025;-88
2022/02/07 14:33:44;;;;;;;2.33;1.30;;;;;;;;;;6058001;23;20465;-89
2022/02/07 14:36:12;;;;;;;4.60;2.60;;;;;;;;;;6153322;23;20025;-87
2022/02/07 14:38:41;;;;;;;4.90;2.75;;;;;;;;;;6121993;23;20013;-88
2022/02/07 14:41:10;;;;;;;5.18;3.08;;;;;;;;;;6074423;23;20026;-85
2022/02/07 14:43:39;;;;;;;3.45;3.08;;;;;;;;;;6126965;23;20029;-89
2022/02/07 14:46:10;;;;;;;6.25;2.13;;;;;;;;;;6132279;23;20017;-84
2022/02/07 14:48:43;;;;;;;15.15;3.58;;;;;;;;;;6097601;23;20030;-90
2022/02/07 14:51:23;;;;;;;3.88;2.08;;;;;;;;;;6101281;23;20017;-89
2022/02/07 14:53:51;;;;;;;3.63;1.95;;;;;;;;;;6132935;23;20021;-90
2022/02/07 14:56:20;;;;;;;4.93;2.15;;;;;;;;;;6096943;23;20025;-86
2022/02/07 14:58:56;;;;;;;14.60;2.97;;;;;;;;;;6122132;23;20046;-85
2022/02/07 15:01:30;;;;;;;5.00;2.47;;;;;;;;;;6098020;23;20661;-89
2022/02/07 15:04:00;;;;;;;3.78;2.88;;;;;;;;;;6097302;23;20029;-89
2022/02/07 15:06:33;;;;;;;2.10;2.00;;;;;;;;;;6097962;23;20029;-90
2022/02/07 15:09:01;;;;;;;6.72;2.15;;;;;;;;;;6096564;23;20037;-88
2022/02/07 15:11:33;;;;;;;4.35;2.67;;;;;;;;;;6121540;23;20461;-87
2022/02/07 15:14:01;;;;;;;2.00;1.88;;;;;;;;;;6121558;23;20021;-87
2022/02/07 15:16:35;;;;;;;4.30;2.05;;;;;;;;;;6031585;23;20026;-90
2022/02/07 15:19:06;;;;;;;4.20;2.28;;;;;;;;;;6010132;23;20023;-88
2022/02/07 15:21:43;;;;;;;15.65;3.22;;;;;;;;;;6007945;23;20019;-89
2022/02/07 15:24:25;;;;;;;3.70;2.03;;;;;;;;;;6040288;23;20055;-90
2022/02/07 15:26:56;;;;;;;3.03;2.83;;;;;;;;;;6010700;23;20027;-89
2022/02/07 15:29:26;;;;;;;1.98;1.63;;;;;;;;;;6008846;23;20051;-89
2022/02/07 15:32:10;;;;;;;2.17;1.98;;;;;;;;;;6038441;23;20580;-88
2022/02/07 15:34:38;;;;;;;5.85;2.40;;;;;;;;;;6038191;23;20328;-89
2022/02/07 15:37:07;;;;;;;3.50;2.60;;;;;;;;;;5986372;23;20031;-89
2022/02/07 15:39:35;;;;;;;8.82;3.47;;;;;;;;;;6063291;23;20056;-85
2022/02/07 15:42:05;;;;;;;9.77;5.25;;;;;;;;;;6079913;23;20028;-86
2022/02/07 15:44:34;;;;;;;2.20;1.67;;;;;;;;;;6121355;23;20022;-83
2022/02/07 15:47:05;;;;;;;3.53;1.98;;;;;;;;;;6131065;23;20018;-86
2022/02/07 15:49:35;;;;;;;2.33;2.17;;;;;;;;;;6097193;23;20044;-87
2022/02/07 15:52:07;;;;;;;3.00;2.03;;;;;;;;;;6096718;23;20638;-87
2022/02/07 15:54:38;;;;;;;4.07;2.30;;;;;;;;;;6131133;23;20013;-86
2022/02/07 15:57:08;;;;;;;6.53;1.98;;;;;;;;;;6122709;23;20025;-86
2022/02/07 15:59:39;;;;;;;6.82;2.83;;;;;;;;;;6121139;23;20026;-87
2022/02/07 16:02:11;;;;;;;4.22;2.25;;;;;;;;;;6147208;23;20024;-83
2022/02/07 16:04:41;;;;;;;5.90;2.17;;;;;;;;;;6123814;23;20045;-86
2022/02/07 16:07:13;;;;;;;5.73;2.77;;;;;;;;;;6128263;23;20029;-87
2022/02/07 16:09:42;;;;;;;4.82;2.13;;;;;;;;;;6120265;23;20045;-87
2022/02/07 16:12:19;;;;;;;10.13;4.10;;;;;;;;;;6092208;23;20145;-87
2022/02/07 16:14:49;;;;;;;26.83;3.72;;;;;;;;;;6090912;23;20022;-85
2022/02/07 16:17:21;;;;;;;5.55;3.95;;;;;;;;;;6116249;23;20342;-85
2022/02/07 16:19:59;;;;;;;4.05;2.08;;;;;;;;;;6114724;23;20421;-85
2022/02/07 16:22:29;;;;;;;3.83;2.40;;;;;;;;;;6127663;23;20014;-86
2022/02/07 16:25:03;;;;;;;3.30;2.67;;;;;;;;;;6114403;23;20049;-85
2022/02/07 16:27:31;;;;;;;1.63;1.58;;;;;;;;;;6123221;23;20022;-86
2022/02/07 16:29:59;;;;;;;2.80;2.20;;;;;;;;;;6100408;23;20026;-84
2022/02/07 16:32:28;;;;;;;3.92;2.17;;;;;;;;;;6118730;23;20450;-84
2022/02/07 16:34:56;;;;;;;2.75;2.58;;;;;;;;;;6091234;23;20596;-84
2022/02/07 16:37:25;;;;;;;4.30;3.58;;;;;;;;;;6116738;23;20017;-84
2022/02/07 16:39:55;;;;;;;12.38;3.70;;;;;;;;;;6122454;23;20852;-85
2022/02/07 16:42:23;;;;;;;8.25;2.40;;;;;;;;;;6091722;23;20022;-86
2022/02/07 16:45:01;;;;;;;3.30;3.00;;;;;;;;;;6114346;23;20026;-83
2022/02/07 16:47:35;;;;;;;4.63;3.60;;;;;;;;;;6124558;23;20030;-89
2022/02/07 16:50:21;;;;;;;5.20;2.47;;;;;;;;;;6130600;23;20025;-91
2022/02/07 16:52:59;;;;;;;10.38;5.20;;;;;;;;;;6095124;23;20029;-84
2022/02/07 16:55:27;;;;;;;2.88;1.60;;;;;;;;;;6119166;23;20454;-86
2022/02/07 16:58:06;;;;;;;3.03;2.65;;;;;;;;;;6107695;23;20018;-87
2022/02/07 17:00:34;;;;;;;4.07;1.95;;;;;;;;;;6070361;23;20025;-84
2022/02/07 17:03:06;;;;;;;5.15;3.47;;;;;;;;;;6130820;23;20031;-86
2022/02/07 17:05:47;;;;;;;2.63;2.08;;;;;;;;;;6118776;23;20021;-87
2022/02/07 17:08:21;;;;;;;2.90;2.70;;;;;;;;;;6072926;23;20542;-88
2022/02/07 17:10:52;;;;;;;7.43;2.42;;;;;;;;;;6095049;23;20319;-87
2022/02/07 17:13:22;;;;;;;8.80;3.78;;;;;;;;;;6093088;23;20030;-88
2022/02/07 17:15:50;;;;;;;4.95;2.60;;;;;;;;;;6093496;23;20769;-81
2022/02/07 17:18:22;;;;;;;2.03;1.83;;;;;;;;;;6092855;23;20022;-87
2022/02/07 17:21:08;;;;;;;6.38;2.95;;;;;;;;;;6118948;23;20547;-84
2022/02/07 17:23:36;;;;;;;4.60;2.03;;;;;;;;;;6069493;23;20029;-86
2022/02/07 17:26:06;;;;;;;2.08;1.98;;;;;;;;;;6094369;23;20022;-88
2022/02/07 17:28:41;;;;;;;5.53;3.20;;;;;;;;;;6093918;23;20026;-86
2022/02/07 17:31:18;;;;;;;3.17;1.90;;;;;;;;;;6122878;23;20017;-86
2022/02/07 17:33:53;;;;;;;6.78;2.50;;;;;;;;;;6130485;23;20026;-89
2022/02/07 17:36:56;;;;;;;4.32;3.00;;;;;;;;;;6058240;23;20030;-87
2022/02/07 17:39:44;;;;;;;2.88;2.33;;;;;;;;;;6092009;23;20023;-86
2022/02/07 17:42:23;;;;;;;4.25;3.40;;;;;;;;;;6093843;23;20791;-89